Wetterdaten: Woche 23.03.09 - 29.03.09 (KW13)
Datum Zeit Temperatur Luftfeuchte Luftdruck Niederschlag Windrichtung Wind
23.03.2009 00:00 -0,2 C 87 % 1025,8 hPa 0,0 l/m W 1,3 km/h (1 Bft)
23.03.2009 01:00 0,7 C 86 % 1025,3 hPa 0,0 l/m W 12,1 km/h (2 Bft)
23.03.2009 02:00 2,3 C 81 % 1024,8 hPa 0,0 l/m W 17,4 km/h (3 Bft)
23.03.2009 03:00 2,7 C 81 % 1024,2 hPa 0,0 l/m W-SW 16,5 km/h (3 Bft)
23.03.2009 04:00 2,7 C 82 % 1023,6 hPa 0,0 l/m W 16,5 km/h (3 Bft)
23.03.2009 05:00 3,0 C 80 % 1022,9 hPa 0,0 l/m W-SW 18,6 km/h (3 Bft)
23.03.2009 06:00 3,4 C 76 % 1022,1 hPa 0,0 l/m SW 21,0 km/h (4 Bft)
23.03.2009 07:00 3,3 C 78 % 1021,7 hPa 0,0 l/m SW 15,6 km/h (3 Bft)
23.03.2009 08:00 3,4 C 80 % 1021,2 hPa 0,0 l/m W-SW 17,0 km/h (3 Bft)
23.03.2009 09:00 4,4 C 74 % 1020,5 hPa 0,0 l/m W-SW 29,5 km/h (5 Bft)
23.03.2009 10:00 5,8 C 68 % 1019,6 hPa 0,0 l/m W-SW 26,8 km/h (4 Bft)
23.03.2009 11:00 7,3 C 62 % 1017,9 hPa 0,0 l/m W-SW 29,8 km/h (5 Bft)
23.03.2009 12:00 8,5 C 58 % 1016,5 hPa 0,0 l/m SW 33,4 km/h (5 Bft)
23.03.2009 13:00 9,1 C 56 % 1015,0 hPa 0,0 l/m W-NW 34,7 km/h (5 Bft)
23.03.2009 14:00 8,8 C 56 % 1013,4 hPa 0,0 l/m W-SW 35,0 km/h (5 Bft)
23.03.2009 15:00 9,1 C 55 % 1012,1 hPa 0,0 l/m W-SW 34,6 km/h (5 Bft)
23.03.2009 16:00 8,7 C 55 % 1010,8 hPa 0,0 l/m W-SW 33,8 km/h (5 Bft)
23.03.2009 17:00 8,1 C 60 % 1009,7 hPa 0,0 l/m W-SW 37,1 km/h (5 Bft)
23.03.2009 18:00 7,8 C 60 % 1009,1 hPa 0,0 l/m W-SW 37,0 km/h (5 Bft)
23.03.2009 19:00 7,7 C 60 % 1008,6 hPa 0,0 l/m W-SW 40,6 km/h (6 Bft)
23.03.2009 20:00 7,7 C 61 % 1007,7 hPa 0,0 l/m W 42,0 km/h (6 Bft)
23.03.2009 21:00 7,8 C 60 % 1006,0 hPa 0,0 l/m W-SW 39,7 km/h (6 Bft)
23.03.2009 22:00 7,9 C 61 % 1004,2 hPa 0,0 l/m W 40,8 km/h (6 Bft)
23.03.2009 23:00 7,4 C 70 % 1003,4 hPa 0,2 l/m W 42,7 km/h (6 Bft)
24.03.2009 00:00 5,9 C 85 % 1002,6 hPa 2,4 l/m W-NW 30,1 km/h (5 Bft)
24.03.2009 01:00 3,6 C 87 % 1003,2 hPa 1,4 l/m N-NW 31,6 km/h (5 Bft)
24.03.2009 02:00 0,5 C 92 % 1004,0 hPa 0,4 l/m N-NW 21,6 km/h (4 Bft)
24.03.2009 03:00 -0,1 C 92 % 1003,7 hPa 1,6 l/m W-NW 12,1 km/h (2 Bft)
24.03.2009 04:00 -0,2 C 92 % 1004,1 hPa 0,6 l/m SW 6,4 km/h (2 Bft)
24.03.2009 05:00 -0,3 C 92 % 1004,7 hPa 0,0 l/m SW 9,8 km/h (2 Bft)
24.03.2009 06:00 -0,6 C 92 % 1005,7 hPa 0,0 l/m W-SW 11,6 km/h (2 Bft)
24.03.2009 07:00 -0,1 C 94 % 1006,1 hPa 0,0 l/m SW 14,9 km/h (3 Bft)
24.03.2009 08:00 0,5 C 94 % 1006,5 hPa 0,2 l/m W-SW 12,4 km/h (3 Bft)
24.03.2009 09:00 0,8 C 93 % 1006,9 hPa 0,4 l/m SW 14,1 km/h (3 Bft)
24.03.2009 10:00 1,7 C 90 % 1007,3 hPa 0,0 l/m SW 15,8 km/h (3 Bft)
24.03.2009 11:00 2,0 C 88 % 1007,6 hPa 0,0 l/m N-NW 12,7 km/h (3 Bft)
24.03.2009 12:00 2,4 C 85 % 1007,8 hPa 1,6 l/m NW 22,2 km/h (4 Bft)
24.03.2009 13:00 4,0 C 76 % 1007,7 hPa 0,0 l/m W 26,2 km/h (4 Bft)
24.03.2009 14:00 4,1 C 75 % 1008,1 hPa 0,2 l/m NW 22,7 km/h (4 Bft)
24.03.2009 15:00 4,6 C 69 % 1008,3 hPa 0,0 l/m W-NW 26,0 km/h (4 Bft)
24.03.2009 16:00 4,1 C 68 % 1008,8 hPa 0,0 l/m W 21,7 km/h (4 Bft)
24.03.2009 17:00 3,6 C 69 % 1009,0 hPa 0,0 l/m W-NW 31,0 km/h (5 Bft)
24.03.2009 18:00 3,1 C 72 % 1009,4 hPa 0,0 l/m W 20,2 km/h (4 Bft)
24.03.2009 19:00 2,4 C 80 % 1010,1 hPa 0,0 l/m W-SW 20,9 km/h (4 Bft)
24.03.2009 20:00 1,9 C 86 % 1010,8 hPa 0,0 l/m W-SW 18,5 km/h (3 Bft)
24.03.2009 21:00 1,8 C 89 % 1011,1 hPa 0,2 l/m W 16,6 km/h (3 Bft)
24.03.2009 22:00 1,0 C 92 % 1011,5 hPa 0,8 l/m W-NW 13,8 km/h (3 Bft)
24.03.2009 23:00 0,7 C 94 % 1011,9 hPa 1,4 l/m W-NW 10,8 km/h (2 Bft)
25.03.2009 00:00 0,4 C 90 % 1012,4 hPa 0,2 l/m N-NW 9,1 km/h (2 Bft)
25.03.2009 01:00 -0,1 C 89 % 1012,6 hPa 0,0 l/m N-NW 10,1 km/h (2 Bft)
25.03.2009 02:00 -0,8 C 89 % 1012,4 hPa 0,0 l/m NW 6,7 km/h (2 Bft)
25.03.2009 03:00 -1,6 C 89 % 1012,6 hPa 0,0 l/m W 3,9 km/h (1 Bft)
25.03.2009 04:00 -2,1 C 92 % 1012,6 hPa 0,0 l/m W 6,1 km/h (2 Bft)
25.03.2009 05:00 -1,4 C 91 % 1012,4 hPa 0,0 l/m W-SW 7,6 km/h (2 Bft)
25.03.2009 06:00 -0,9 C 92 % 1011,8 hPa 0,0 l/m SW 9,7 km/h (2 Bft)
25.03.2009 07:00 -0,4 C 95 % 1011,1 hPa 0,0 l/m SW 14,9 km/h (3 Bft)
25.03.2009 08:00 0,3 C 93 % 1010,3 hPa 0,0 l/m SW 15,3 km/h (3 Bft)
25.03.2009 09:00 1,2 C 88 % 1009,5 hPa 0,0 l/m W-SW 22,1 km/h (4 Bft)
25.03.2009 10:00 1,2 C 90 % 1008,7 hPa 0,0 l/m W-SW 25,5 km/h (4 Bft)
25.03.2009 11:00 1,1 C 91 % 1007,3 hPa 0,2 l/m SW 32,9 km/h (5 Bft)
25.03.2009 12:00 1,3 C 89 % 1006,1 hPa 0,0 l/m W-SW 41,7 km/h (6 Bft)
25.03.2009 13:00 1,6 C 87 % 1005,0 hPa 0,0 l/m W-SW 39,7 km/h (6 Bft)
25.03.2009 14:00 2,4 C 83 % 1004,0 hPa 0,0 l/m W-SW 41,4 km/h (6 Bft)
25.03.2009 15:00 2,6 C 85 % 1003,7 hPa 0,0 l/m SW 33,1 km/h (5 Bft)
25.03.2009 16:00 2,4 C 87 % 1003,2 hPa 0,2 l/m W-SW 32,7 km/h (5 Bft)
25.03.2009 17:00 1,5 C 92 % 1003,0 hPa 1,4 l/m SW 30,2 km/h (5 Bft)
25.03.2009 18:00 1,6 C 93 % 1003,8 hPa 0,2 l/m W-SW 25,5 km/h (4 Bft)
25.03.2009 19:00 1,6 C 94 % 1004,0 hPa 0,0 l/m W-SW 22,3 km/h (4 Bft)
25.03.2009 20:00 1,7 C 93 % 1003,9 hPa 0,0 l/m W-SW 26,0 km/h (4 Bft)
25.03.2009 21:00 1,6 C 94 % 1003,8 hPa 0,0 l/m SW 26,8 km/h (4 Bft)
25.03.2009 22:00 1,5 C 94 % 1004,1 hPa 0,8 l/m SW 20,5 km/h (4 Bft)
25.03.2009 23:00 1,4 C 95 % 1004,2 hPa 0,2 l/m W-SW 21,8 km/h (4 Bft)
26.03.2009 00:00 1,8 C 94 % 1004,8 hPa 0,0 l/m W 18,1 km/h (3 Bft)
26.03.2009 01:00 1,8 C 93 % 1006,0 hPa 0,0 l/m W-NW 20,0 km/h (4 Bft)
26.03.2009 02:00 1,7 C 93 % 1007,2 hPa 0,0 l/m W-SW 13,6 km/h (3 Bft)
26.03.2009 03:00 1,6 C 92 % 1008,0 hPa 0,0 l/m W-SW 15,2 km/h (3 Bft)
26.03.2009 04:00 1,7 C 92 % 1008,9 hPa 0,0 l/m W-SW 15,0 km/h (3 Bft)
26.03.2009 05:00 1,7 C 91 % 1009,6 hPa 0,0 l/m W-SW 17,0 km/h (3 Bft)
26.03.2009 06:00 1,7 C 91 % 1010,5 hPa 0,0 l/m W-SW 13,8 km/h (3 Bft)
26.03.2009 07:00 1,8 C 91 % 1011,1 hPa 0,0 l/m W-SW 17,7 km/h (3 Bft)
26.03.2009 08:00 2,2 C 92 % 1011,9 hPa 0,0 l/m W-SW 19,4 km/h (3 Bft)
26.03.2009 09:00 3,2 C 89 % 1012,6 hPa 0,0 l/m W-SW 17,8 km/h (3 Bft)
26.03.2009 10:00 4,5 C 85 % 1012,9 hPa 0,0 l/m W-SW 20,2 km/h (4 Bft)
26.03.2009 11:00 4,8 C 85 % 1012,7 hPa 0,0 l/m W-SW 23,2 km/h (4 Bft)
26.03.2009 12:00 6,2 C 79 % 1012,4 hPa 0,0 l/m W-SW 29,6 km/h (5 Bft)
26.03.2009 13:00 6,8 C 74 % 1012,0 hPa 0,0 l/m W 26,7 km/h (4 Bft)
26.03.2009 14:00 6,9 C 73 % 1011,5 hPa 0,0 l/m W 30,2 km/h (5 Bft)
26.03.2009 15:00 7,2 C 73 % 1010,8 hPa 0,0 l/m W-SW 25,7 km/h (4 Bft)
26.03.2009 16:00 7,0 C 75 % 1009,9 hPa 0,0 l/m W-SW 24,0 km/h (4 Bft)
26.03.2009 17:00 6,4 C 81 % 1008,8 hPa 0,0 l/m SW 24,9 km/h (4 Bft)
26.03.2009 18:00 5,5 C 88 % 1008,3 hPa 0,0 l/m SW 15,6 km/h (3 Bft)
26.03.2009 19:00 5,5 C 87 % 1008,1 hPa 0,0 l/m W-SW 12,5 km/h (3 Bft)
26.03.2009 20:00 5,3 C 87 % 1008,4 hPa 1,6 l/m W-SW 22,5 km/h (4 Bft)
26.03.2009 21:00 4,7 C 91 % 1008,5 hPa 1,6 l/m W-SW 20,1 km/h (4 Bft)
26.03.2009 22:00 4,3 C 92 % 1008,5 hPa 1,4 l/m W-SW 25,1 km/h (4 Bft)
26.03.2009 23:00 4,1 C 93 % 1008,2 hPa 0,6 l/m SW 24,1 km/h (4 Bft)
27.03.2009 00:00 4,3 C 94 % 1008,0 hPa 1,0 l/m SW 19,3 km/h (3 Bft)
27.03.2009 01:00 4,4 C 95 % 1007,8 hPa 0,4 l/m SW 17,8 km/h (3 Bft)
27.03.2009 02:00 4,6 C 95 % 1007,2 hPa 0,0 l/m SW 20,6 km/h (4 Bft)
27.03.2009 03:00 4,6 C 94 % 1006,6 hPa 0,0 l/m SW 19,0 km/h (3 Bft)
27.03.2009 04:00 4,4 C 96 % 1006,0 hPa 0,0 l/m SW 16,2 km/h (3 Bft)
27.03.2009 05:00 5,1 C 93 % 1005,2 hPa 0,0 l/m W-SW 25,0 km/h (4 Bft)
27.03.2009 06:00 5,2 C 91 % 1005,2 hPa 0,0 l/m W-SW 26,4 km/h (4 Bft)
27.03.2009 07:00 5,3 C 91 % 1005,5 hPa 0,0 l/m W-SW 24,8 km/h (4 Bft)
27.03.2009 08:00 5,7 C 89 % 1005,7 hPa 0,0 l/m W-SW 30,4 km/h (5 Bft)
27.03.2009 09:00 6,1 C 89 % 1005,5 hPa 0,0 l/m SW 26,3 km/h (4 Bft)
27.03.2009 10:00 6,8 C 86 % 1005,4 hPa 0,0 l/m W-SW 27,6 km/h (4 Bft)
27.03.2009 11:00 7,2 C 84 % 1005,5 hPa 0,2 l/m SW 29,4 km/h (5 Bft)
27.03.2009 12:00 8,4 C 76 % 1005,0 hPa 0,0 l/m W-NW 32,6 km/h (5 Bft)
27.03.2009 13:00 8,8 C 75 % 1004,7 hPa 0,0 l/m W-SW 36,9 km/h (5 Bft)
27.03.2009 14:00 10,1 C 68 % 1004,0 hPa 0,0 l/m SW 37,0 km/h (5 Bft)
27.03.2009 15:00 10,4 C 66 % 1003,5 hPa 0,0 l/m W-SW 35,3 km/h (5 Bft)
27.03.2009 16:00 10,5 C 64 % 1003,2 hPa 0,0 l/m W 29,4 km/h (5 Bft)
27.03.2009 17:00 9,7 C 65 % 1003,2 hPa 0,0 l/m W 23,3 km/h (4 Bft)
27.03.2009 18:00 8,7 C 68 % 1003,5 hPa 0,0 l/m W-SW 21,7 km/h (4 Bft)
27.03.2009 19:00 8,2 C 69 % 1003,7 hPa 0,0 l/m W-SW 18,8 km/h (3 Bft)
27.03.2009 20:00 7,5 C 71 % 1004,0 hPa 0,0 l/m SW 13,6 km/h (3 Bft)
27.03.2009 21:00 6,9 C 76 % 1004,0 hPa 0,0 l/m SW 10,6 km/h (2 Bft)
27.03.2009 22:00 6,4 C 83 % 1003,9 hPa 0,0 l/m SW 9,1 km/h (2 Bft)
27.03.2009 23:00 6,0 C 88 % 1003,6 hPa 0,6 l/m W-SW 7,5 km/h (2 Bft)
28.03.2009 00:00 5,8 C 90 % 1003,1 hPa 0,0 l/m W 2,3 km/h (1 Bft)
28.03.2009 01:00 5,6 C 92 % 1002,2 hPa 0,0 l/m W 1,2 km/h (1 Bft)
28.03.2009 02:00 5,2 C 93 % 1000,9 hPa 0,0 l/m SW 1,9 km/h (1 Bft)
28.03.2009 03:00 4,8 C 93 % 1000,4 hPa 0,0 l/m N 0,7 km/h (0 Bft)
28.03.2009 04:00 4,4 C 93 % 999,7 hPa 0,0 l/m SW 1,5 km/h (1 Bft)
28.03.2009 05:00 4,2 C 94 % 999,2 hPa 0,0 l/m N 0,3 km/h (0 Bft)
28.03.2009 06:00 3,9 C 94 % 998,8 hPa 0,0 l/m NW 1,9 km/h (1 Bft)
28.03.2009 07:00 4,1 C 96 % 998,3 hPa 0,0 l/m NW 2,8 km/h (1 Bft)
28.03.2009 08:00 5,4 C 94 % 998,5 hPa 0,0 l/m N-NW 8,0 km/h (2 Bft)
28.03.2009 09:00 8,2 C 81 % 998,4 hPa 0,0 l/m N-NO 7,7 km/h (2 Bft)
28.03.2009 10:00 8,6 C 78 % 998,5 hPa 0,0 l/m O 8,0 km/h (2 Bft)
28.03.2009 11:00 8,5 C 82 % 998,6 hPa 0,0 l/m O-NO 6,0 km/h (2 Bft)
28.03.2009 12:00 8,3 C 86 % 999,4 hPa 0,8 l/m W-NW 11,4 km/h (2 Bft)
28.03.2009 13:00 7,1 C 91 % 1000,2 hPa 2,0 l/m W-SW 12,1 km/h (2 Bft)
28.03.2009 14:00 6,5 C 90 % 1000,9 hPa 1,2 l/m W 15,2 km/h (3 Bft)
28.03.2009 15:00 5,9 C 91 % 1001,6 hPa 0,6 l/m W-SW 10,9 km/h (2 Bft)
28.03.2009 16:00 5,7 C 90 % 1002,4 hPa 0,8 l/m W-NW 15,0 km/h (3 Bft)
28.03.2009 17:00 4,9 C 90 % 1003,3 hPa 1,4 l/m W-NW 21,6 km/h (4 Bft)
28.03.2009 18:00 4,1 C 90 % 1004,1 hPa 0,0 l/m W-SW 17,0 km/h (3 Bft)
28.03.2009 19:00 4,0 C 93 % 1004,8 hPa 0,6 l/m SW 9,4 km/h (2 Bft)
28.03.2009 20:00 3,7 C 93 % 1005,5 hPa 0,2 l/m W-SW 12,5 km/h (3 Bft)
28.03.2009 21:00 3,5 C 94 % 1006,3 hPa 0,2 l/m S-SW 11,7 km/h (2 Bft)
28.03.2009 22:00 3,2 C 96 % 1006,5 hPa 0,2 l/m S-SW 17,2 km/h (3 Bft)
28.03.2009 23:00 3,0 C 96 % 1006,6 hPa 0,0 l/m SW 14,2 km/h (3 Bft)
29.03.2009 00:00 2,8 C 96 % 1006,9 hPa 0,4 l/m SW 9,0 km/h (2 Bft)
29.03.2009 01:00 2,6 C 95 % 1006,9 hPa 0,0 l/m W-SW 5,5 km/h (1 Bft)
29.03.2009 03:00 2,5 C 96 % 1006,8 hPa 0,0 l/m S-SW 5,2 km/h (1 Bft)
29.03.2009 04:00 2,3 C 96 % 1006,7 hPa 0,0 l/m SW 5,3 km/h (1 Bft)
29.03.2009 05:00 2,3 C 96 % 1006,7 hPa 0,0 l/m S-SW 3,5 km/h (1 Bft)
29.03.2009 06:00 2,3 C 96 % 1007,0 hPa 0,0 l/m S-SW 5,6 km/h (1 Bft)
29.03.2009 07:00 2,3 C 97 % 1007,6 hPa 0,2 l/m SW 4,9 km/h (1 Bft)
29.03.2009 08:00 2,5 C 97 % 1007,7 hPa 0,0 l/m SW 4,5 km/h (1 Bft)
29.03.2009 09:00 3,0 C 96 % 1007,6 hPa 0,0 l/m S-SW 5,3 km/h (1 Bft)
29.03.2009 10:00 4,0 C 89 % 1007,8 hPa 0,0 l/m SW 5,2 km/h (1 Bft)
29.03.2009 11:00 5,0 C 85 % 1007,7 hPa 0,0 l/m S 5,1 km/h (1 Bft)
29.03.2009 12:00 5,0 C 84 % 1007,8 hPa 0,0 l/m O-SO 3,6 km/h (1 Bft)
29.03.2009 13:00 5,3 C 83 % 1007,6 hPa 0,0 l/m NO 4,4 km/h (1 Bft)
29.03.2009 14:00 5,4 C 83 % 1007,3 hPa 0,0 l/m NO 6,0 km/h (2 Bft)
29.03.2009 15:00 5,4 C 83 % 1007,4 hPa 0,0 l/m O-NO 6,7 km/h (2 Bft)
29.03.2009 16:00 5,5 C 85 % 1007,7 hPa 0,0 l/m O-SO 8,2 km/h (2 Bft)
29.03.2009 17:00 5,1 C 87 % 1007,9 hPa 0,8 l/m O 7,9 km/h (2 Bft)
29.03.2009 18:00 4,2 C 91 % 1008,3 hPa 0,2 l/m O 4,7 km/h (1 Bft)
29.03.2009 19:00 3,8 C 92 % 1008,9 hPa 0,0 l/m O-SO 2,7 km/h (1 Bft)
29.03.2009 20:00 3,7 C 92 % 1009,4 hPa 0,4 l/m N 0,9 km/h (0 Bft)
29.03.2009 21:00 3,5 C 93 % 1010,1 hPa 0,0 l/m O-SO 2,4 km/h (1 Bft)
29.03.2009 22:00 3,3 C 93 % 1010,3 hPa 0,0 l/m N 0,9 km/h (0 Bft)
29.03.2009 23:00 3,2 C 94 % 1011,0 hPa 0,0 l/m NO 3,1 km/h (1 Bft)
Min-Datum _ 25.03.09 23.03.09 28.03.09 - - 23.03.09
_ Min-Zeit 04:05 15:50 07:45 - - 00:00
Minimum _ -2,2 C 51 % 998,1 hPa - - 0,0 km/h (0 Bft)
Max-Datum _ 27.03.09 24.03.09 23.03.09 24.03.09 - 23.03.09
_ Max-Zeit 14:35 07:35 00:00 00:50 - 22:10
Maximum _ 10,8 C 100 % 1026,0 hPa 2,4 l/m - 53,1 km/h
W (7 Bft)
Durchschnitt _ 4,1 C 85 % 1007,9 hPa #32,0 l/m W-SW 18,1 km/h (3 Bft)